HVK374 EGKK-EDDF
Flight info
| Callsign | HVK374 |
|---|---|
| Flight time | 1h 2m |
| Altitude | 31000 |
| Route | DVR UL9 KONAN UL607 KOK DCT REMBA UL607 SPI T180 NIVNU/N0313F230 T847 IMCOM IMCOM1B |
| Aircraft | A400/H-SDE2E3FGHIJ4J5M1RWXY/LB1D1 |
Departure
| Time | 2026-05-05 21:34 |
|---|---|
| Airport | London Gatwick Airport (EGKK) |
Arrival
| Time | 2026-05-05 22:36 |
|---|---|
| Airport | Frankfurt Main Airport (EDDF) |
| Time | Latitude | Longitude | Altitude | Speed | Heading |
|---|---|---|---|---|---|
| 2026-05-05 21:19 | 51.15104 | -0.19454 | 224 ft | 0 kts | 78° |
| 2026-05-05 21:27 | 51.15100 | -0.19483 | 225 ft | 5 kts | 78° |
| 2026-05-05 21:27 | 51.15097 | -0.19535 | 218 ft | 5 kts | 99° |
| 2026-05-05 21:28 | 51.15104 | -0.19583 | 223 ft | 3 kts | 133° |
| 2026-05-05 21:28 | 51.15106 | -0.19588 | 221 ft | 0 kts | 148° |
| 2026-05-05 21:30 | 51.15095 | -0.19580 | 217 ft | 7 kts | 156° |
| 2026-05-05 21:30 | 51.15016 | -0.19601 | 217 ft | 17 kts | 230° |
| 2026-05-05 21:30 | 51.14978 | -0.19813 | 219 ft | 25 kts | 257° |
| 2026-05-05 21:30 | 51.14935 | -0.20129 | 216 ft | 33 kts | 258° |
| 2026-05-05 21:31 | 51.14884 | -0.20512 | 216 ft | 38 kts | 258° |
| 2026-05-05 21:31 | 51.14834 | -0.20866 | 217 ft | 28 kts | 259° |
| 2026-05-05 21:31 | 51.14791 | -0.21153 | 222 ft | 25 kts | 249° |
| 2026-05-05 21:31 | 51.14751 | -0.21371 | 220 ft | 12 kts | 245° |
| 2026-05-05 21:32 | 51.14710 | -0.21394 | 220 ft | 9 kts | 172° |
| 2026-05-05 21:32 | 51.14642 | -0.21342 | 217 ft | 12 kts | 157° |
| 2026-05-05 21:32 | 51.14612 | -0.21326 | 216 ft | 0 kts | 163° |
| 2026-05-05 21:33 | 51.14554 | -0.21283 | 216 ft | 18 kts | 147° |
| 2026-05-05 21:33 | 51.14524 | -0.21118 | 220 ft | 17 kts | 79° |
| 2026-05-05 21:34 | 51.14634 | -0.20347 | 217 ft | 134 kts | 76° |
| 2026-05-05 21:34 | 51.14899 | -0.18470 | 420 ft | 198 kts | 78° |
| 2026-05-05 21:34 | 51.15195 | -0.16212 | 1177 ft | 213 kts | 77° |
| 2026-05-05 21:34 | 51.15505 | -0.13895 | 2527 ft | 210 kts | 78° |
| 2026-05-05 21:35 | 51.15792 | -0.11704 | 4256 ft | 198 kts | 78° |
| 2026-05-05 21:35 | 51.16067 | -0.09612 | 6080 ft | 187 kts | 78° |
| 2026-05-05 21:35 | 51.16325 | -0.07649 | 7834 ft | 175 kts | 78° |
| 2026-05-05 21:35 | 51.16562 | -0.05831 | 9121 ft | 168 kts | 78° |
| 2026-05-05 21:36 | 51.16806 | -0.03850 | 9778 ft | 201 kts | 79° |
| 2026-05-05 21:36 | 51.17073 | -0.01394 | 9970 ft | 254 kts | 81° |
| 2026-05-05 21:36 | 51.17338 | 0.01569 | 9988 ft | 280 kts | 83° |
| 2026-05-05 21:36 | 51.17551 | 0.04708 | 9995 ft | 288 kts | 85° |
| 2026-05-05 21:37 | 51.17698 | 0.07883 | 9998 ft | 290 kts | 86° |
| 2026-05-05 21:37 | 51.17777 | 0.11097 | 9999 ft | 291 kts | 89° |
| 2026-05-05 21:37 | 51.17788 | 0.14343 | 10000 ft | 291 kts | 90° |
| 2026-05-05 21:37 | 51.17728 | 0.17583 | 10000 ft | 295 kts | 92° |
| 2026-05-05 21:38 | 51.17632 | 0.20814 | 9999 ft | 294 kts | 92° |
| 2026-05-05 21:38 | 51.17564 | 0.24077 | 9999 ft | 296 kts | 91° |
| 2026-05-05 21:38 | 51.17511 | 0.27356 | 9998 ft | 294 kts | 91° |
| 2026-05-05 21:38 | 51.17461 | 0.30693 | 10198 ft | 311 kts | 91° |
| 2026-05-05 21:39 | 51.17405 | 0.34189 | 11027 ft | 321 kts | 91° |
| 2026-05-05 21:39 | 51.17345 | 0.37710 | 12303 ft | 317 kts | 91° |
| 2026-05-05 21:39 | 51.17281 | 0.41217 | 13015 ft | 316 kts | 91° |
| 2026-05-05 21:39 | 51.17213 | 0.44724 | 13604 ft | 316 kts | 92° |
| 2026-05-05 21:40 | 51.17143 | 0.48233 | 14178 ft | 318 kts | 92° |
| 2026-05-05 21:40 | 51.17070 | 0.51777 | 14754 ft | 321 kts | 92° |
| 2026-05-05 21:40 | 51.16996 | 0.55296 | 15327 ft | 323 kts | 92° |
| 2026-05-05 21:40 | 51.16920 | 0.58887 | 15896 ft | 326 kts | 92° |
| 2026-05-05 21:41 | 51.16808 | 0.62511 | 16475 ft | 329 kts | 96° |
| 2026-05-05 21:41 | 51.16496 | 0.66147 | 17055 ft | 332 kts | 98° |
| 2026-05-05 21:41 | 51.16455 | 0.69824 | 17619 ft | 334 kts | 79° |
| 2026-05-05 21:41 | 51.17216 | 0.73325 | 18210 ft | 337 kts | 65° |
| 2026-05-05 21:42 | 51.18305 | 0.76656 | 18784 ft | 340 kts | 60° |
| 2026-05-05 21:42 | 51.19513 | 0.79915 | 19359 ft | 343 kts | 58° |
| 2026-05-05 21:42 | 51.20757 | 0.83127 | 19924 ft | 346 kts | 58° |
| 2026-05-05 21:42 | 51.21996 | 0.86455 | 20497 ft | 350 kts | 63° |
| 2026-05-05 21:43 | 51.22825 | 0.90119 | 21210 ft | 355 kts | 78° |
| 2026-05-05 21:43 | 51.22966 | 0.94080 | 22140 ft | 360 kts | 94° |
| 2026-05-05 21:43 | 51.22618 | 0.98011 | 23036 ft | 364 kts | 100° |
| 2026-05-05 21:43 | 51.22130 | 1.02001 | 23885 ft | 369 kts | 102° |
| 2026-05-05 21:44 | 51.21601 | 1.06036 | 24667 ft | 374 kts | 102° |
| 2026-05-05 21:44 | 51.21057 | 1.10121 | 25393 ft | 378 kts | 102° |
| 2026-05-05 21:44 | 51.20504 | 1.14257 | 26071 ft | 383 kts | 102° |
| 2026-05-05 21:44 | 51.19945 | 1.18430 | 26707 ft | 387 kts | 102° |
| 2026-05-05 21:45 | 51.19377 | 1.22667 | 27302 ft | 391 kts | 102° |
| 2026-05-05 21:45 | 51.18810 | 1.26880 | 27855 ft | 395 kts | 102° |
| 2026-05-05 21:45 | 51.18230 | 1.31180 | 28380 ft | 398 kts | 102° |
| 2026-05-05 21:45 | 51.17644 | 1.35508 | 28872 ft | 401 kts | 102° |
| 2026-05-05 21:46 | 51.17052 | 1.39873 | 29339 ft | 404 kts | 102° |
| 2026-05-05 21:46 | 51.16453 | 1.44272 | 29780 ft | 407 kts | 102° |
| 2026-05-05 21:46 | 51.15849 | 1.48701 | 30266 ft | 408 kts | 102° |
| 2026-05-05 21:46 | 51.15253 | 1.53053 | 30820 ft | 406 kts | 102° |
| 2026-05-05 21:47 | 51.14650 | 1.57444 | 31379 ft | 405 kts | 102° |
| 2026-05-05 21:47 | 51.14046 | 1.61829 | 31925 ft | 404 kts | 102° |
| 2026-05-05 21:47 | 51.13442 | 1.66203 | 32485 ft | 403 kts | 102° |
| 2026-05-05 21:47 | 51.12837 | 1.70574 | 33008 ft | 402 kts | 102° |
| 2026-05-05 21:48 | 51.12240 | 1.74871 | 33534 ft | 401 kts | 102° |
| 2026-05-05 21:48 | 51.11636 | 1.79206 | 34054 ft | 400 kts | 102° |
| 2026-05-05 21:48 | 51.11028 | 1.83552 | 34579 ft | 399 kts | 102° |
| 2026-05-05 21:48 | 51.10423 | 1.87873 | 35098 ft | 399 kts | 102° |
| 2026-05-05 21:49 | 51.09819 | 1.92169 | 35600 ft | 398 kts | 103° |
| 2026-05-05 21:49 | 51.09221 | 1.96410 | 36077 ft | 397 kts | 103° |
| 2026-05-05 21:49 | 51.08615 | 2.00693 | 36528 ft | 396 kts | 103° |
| 2026-05-05 21:49 | 51.08009 | 2.04973 | 36940 ft | 396 kts | 103° |
| 2026-05-05 21:50 | 51.07400 | 2.09256 | 37327 ft | 397 kts | 103° |
| 2026-05-05 21:50 | 51.06787 | 2.13553 | 37693 ft | 397 kts | 103° |
| 2026-05-05 21:50 | 51.06183 | 2.17779 | 38033 ft | 397 kts | 103° |
| 2026-05-05 21:50 | 51.05568 | 2.22069 | 38357 ft | 397 kts | 103° |
| 2026-05-05 21:51 | 51.04952 | 2.26351 | 38663 ft | 397 kts | 103° |
| 2026-05-05 21:51 | 51.04334 | 2.30634 | 38943 ft | 397 kts | 103° |
| 2026-05-05 21:51 | 51.03722 | 2.34869 | 39204 ft | 397 kts | 103° |
| 2026-05-05 21:51 | 51.03102 | 2.39148 | 39447 ft | 397 kts | 103° |
| 2026-05-05 21:52 | 51.01853 | 2.47723 | 39889 ft | 397 kts | 103° |
| 2026-05-05 21:52 | 51.01229 | 2.51993 | 40086 ft | 397 kts | 103° |
| 2026-05-05 21:52 | 51.00601 | 2.56279 | 40278 ft | 398 kts | 103° |
| 2026-05-05 21:53 | 50.99971 | 2.60559 | 40444 ft | 398 kts | 103° |
| 2026-05-05 21:53 | 50.99348 | 2.64789 | 40618 ft | 398 kts | 103° |
| 2026-05-05 21:53 | 50.98716 | 2.69063 | 40769 ft | 398 kts | 103° |
| 2026-05-05 21:53 | 50.98084 | 2.73325 | 40885 ft | 396 kts | 103° |
| 2026-05-05 21:54 | 50.97451 | 2.77588 | 40991 ft | 398 kts | 103° |
| 2026-05-05 21:54 | 50.96813 | 2.81867 | 41102 ft | 398 kts | 103° |
| 2026-05-05 21:54 | 50.96173 | 2.86150 | 41240 ft | 398 kts | 103° |
| 2026-05-05 21:54 | 50.95537 | 2.90392 | 41355 ft | 398 kts | 103° |
| 2026-05-05 21:55 | 50.94893 | 2.94682 | 41462 ft | 398 kts | 103° |
| 2026-05-05 21:55 | 50.94250 | 2.98951 | 41574 ft | 398 kts | 103° |
| 2026-05-05 21:55 | 50.93603 | 3.03232 | 41662 ft | 398 kts | 103° |
| 2026-05-05 21:56 | 50.92317 | 3.11712 | 41826 ft | 398 kts | 103° |
| 2026-05-05 21:56 | 50.91013 | 3.20262 | 41982 ft | 398 kts | 103° |
| 2026-05-05 21:57 | 50.89704 | 3.28802 | 42120 ft | 398 kts | 104° |
| 2026-05-05 21:57 | 50.88397 | 3.37285 | 42244 ft | 398 kts | 104° |
| 2026-05-05 21:58 | 50.87297 | 3.44383 | 42345 ft | 398 kts | 104° |
| 2026-05-05 21:58 | 50.85970 | 3.52914 | 42427 ft | 398 kts | 104° |
| 2026-05-05 21:59 | 50.84636 | 3.61444 | 42523 ft | 399 kts | 104° |
| 2026-05-05 21:59 | 50.83301 | 3.69933 | 42615 ft | 399 kts | 104° |
| 2026-05-05 22:00 | 50.81954 | 3.78455 | 42671 ft | 399 kts | 104° |
| 2026-05-05 22:00 | 50.80609 | 3.86921 | 42738 ft | 399 kts | 104° |
| 2026-05-05 22:01 | 50.79251 | 3.95425 | 42803 ft | 399 kts | 104° |
| 2026-05-05 22:01 | 50.77885 | 4.03936 | 42860 ft | 399 kts | 104° |
| 2026-05-05 22:02 | 50.76521 | 4.12389 | 42903 ft | 399 kts | 104° |
| 2026-05-05 22:02 | 50.75146 | 4.20871 | 42949 ft | 399 kts | 104° |
| 2026-05-05 22:03 | 50.73760 | 4.29372 | 42994 ft | 399 kts | 104° |
| 2026-05-05 22:03 | 50.72380 | 4.37800 | 43015 ft | 399 kts | 104° |
| 2026-05-05 22:04 | 50.70984 | 4.46278 | 43032 ft | 399 kts | 104° |
| 2026-05-05 22:04 | 50.69579 | 4.54770 | 43058 ft | 399 kts | 104° |
| 2026-05-05 22:05 | 50.68179 | 4.63189 | 43083 ft | 399 kts | 105° |
| 2026-05-05 22:05 | 50.66765 | 4.71654 | 43094 ft | 399 kts | 105° |
| 2026-05-05 22:06 | 50.65343 | 4.80125 | 43101 ft | 399 kts | 105° |
| 2026-05-05 22:06 | 50.63922 | 4.88547 | 43118 ft | 399 kts | 105° |
| 2026-05-05 22:07 | 50.62482 | 4.97034 | 43131 ft | 399 kts | 105° |
| 2026-05-05 22:07 | 50.61042 | 5.05487 | 43140 ft | 399 kts | 105° |
| 2026-05-05 22:08 | 50.59660 | 5.13562 | 42725 ft | 389 kts | 105° |
| 2026-05-05 22:08 | 50.58959 | 5.17643 | 42301 ft | 381 kts | 105° |
| 2026-05-05 22:08 | 50.58278 | 5.21597 | 42043 ft | 368 kts | 105° |
| 2026-05-05 22:08 | 50.57617 | 5.25425 | 41812 ft | 354 kts | 105° |
| 2026-05-05 22:09 | 50.56982 | 5.29098 | 41586 ft | 341 kts | 105° |
| 2026-05-05 22:09 | 50.56370 | 5.32628 | 41360 ft | 328 kts | 105° |
| 2026-05-05 22:09 | 50.55787 | 5.35985 | 41143 ft | 315 kts | 105° |
| 2026-05-05 22:09 | 50.55222 | 5.39236 | 40914 ft | 302 kts | 105° |
| 2026-05-05 22:10 | 50.54679 | 5.42351 | 40666 ft | 288 kts | 105° |
| 2026-05-05 22:10 | 50.54160 | 5.45324 | 40403 ft | 275 kts | 105° |
| 2026-05-05 22:10 | 50.53661 | 5.48177 | 40112 ft | 270 kts | 105° |
| 2026-05-05 22:10 | 50.53158 | 5.51009 | 40348 ft | 267 kts | 106° |
| 2026-05-05 22:11 | 50.52665 | 5.53698 | 41098 ft | 248 kts | 106° |
| 2026-05-05 22:11 | 50.52158 | 5.56437 | 40658 ft | 268 kts | 106° |
| 2026-05-05 22:11 | 50.51628 | 5.59279 | 40076 ft | 271 kts | 107° |
| 2026-05-05 22:11 | 50.51084 | 5.62108 | 39786 ft | 273 kts | 107° |
| 2026-05-05 22:12 | 50.50524 | 5.64842 | 40121 ft | 259 kts | 109° |
| 2026-05-05 22:12 | 50.49939 | 5.67432 | 40727 ft | 243 kts | 108° |
| 2026-05-05 22:12 | 50.49381 | 5.70128 | 39695 ft | 282 kts | 102° |
| 2026-05-05 22:12 | 50.48940 | 5.73335 | 38526 ft | 311 kts | 102° |
| 2026-05-05 22:13 | 50.48459 | 5.76727 | 37734 ft | 324 kts | 103° |
| 2026-05-05 22:13 | 50.47919 | 5.80179 | 36978 ft | 334 kts | 104° |
| 2026-05-05 22:13 | 50.47323 | 5.83766 | 36176 ft | 345 kts | 105° |
| 2026-05-05 22:13 | 50.46686 | 5.87458 | 35335 ft | 355 kts | 105° |
| 2026-05-05 22:14 | 50.46018 | 5.91252 | 34440 ft | 366 kts | 105° |
| 2026-05-05 22:14 | 50.45324 | 5.95153 | 33525 ft | 376 kts | 105° |
| 2026-05-05 22:14 | 50.44608 | 5.99157 | 32526 ft | 386 kts | 105° |
| 2026-05-05 22:14 | 50.43870 | 6.03258 | 31505 ft | 394 kts | 106° |
| 2026-05-05 22:15 | 50.43119 | 6.07422 | 30529 ft | 399 kts | 106° |
| 2026-05-05 22:15 | 50.42370 | 6.11560 | 30033 ft | 398 kts | 106° |
| 2026-05-05 22:15 | 50.41603 | 6.15787 | 29769 ft | 406 kts | 106° |
| 2026-05-05 22:15 | 50.40820 | 6.20093 | 29510 ft | 410 kts | 106° |
| 2026-05-05 22:16 | 50.40036 | 6.24403 | 29258 ft | 410 kts | 105° |
| 2026-05-05 22:16 | 50.39344 | 6.28672 | 29013 ft | 409 kts | 103° |
| 2026-05-05 22:16 | 50.38702 | 6.33006 | 28761 ft | 407 kts | 103° |
| 2026-05-05 22:16 | 50.38071 | 6.37327 | 28499 ft | 406 kts | 103° |
| 2026-05-05 22:17 | 50.37441 | 6.41627 | 28259 ft | 404 kts | 103° |
| 2026-05-05 22:17 | 50.36810 | 6.45908 | 27961 ft | 401 kts | 103° |
| 2026-05-05 22:17 | 50.36185 | 6.50123 | 27257 ft | 393 kts | 103° |
| 2026-05-05 22:17 | 50.35579 | 6.54194 | 26029 ft | 374 kts | 103° |
| 2026-05-05 22:18 | 50.35002 | 6.58061 | 24619 ft | 369 kts | 103° |
| 2026-05-05 22:18 | 50.34413 | 6.61996 | 23114 ft | 370 kts | 103° |
| 2026-05-05 22:18 | 50.33825 | 6.65909 | 21624 ft | 365 kts | 103° |
| 2026-05-05 22:18 | 50.33249 | 6.69737 | 20101 ft | 358 kts | 103° |
| 2026-05-05 22:19 | 50.32681 | 6.73502 | 18621 ft | 354 kts | 103° |
| 2026-05-05 22:19 | 50.32099 | 6.77344 | 17108 ft | 369 kts | 103° |
| 2026-05-05 22:19 | 50.31504 | 6.81268 | 15609 ft | 380 kts | 103° |
| 2026-05-05 22:19 | 50.30904 | 6.85220 | 14078 ft | 356 kts | 103° |
| 2026-05-05 22:20 | 50.30357 | 6.88806 | 12620 ft | 327 kts | 103° |
| 2026-05-05 22:20 | 50.29839 | 6.92201 | 11133 ft | 314 kts | 103° |
| 2026-05-05 22:20 | 50.29338 | 6.95471 | 9634 ft | 304 kts | 103° |
| 2026-05-05 22:20 | 50.28855 | 6.98625 | 8170 ft | 301 kts | 103° |
| 2026-05-05 22:21 | 50.28358 | 7.01859 | 6999 ft | 310 kts | 103° |
| 2026-05-05 22:21 | 50.27855 | 7.05122 | 6335 ft | 304 kts | 103° |
| 2026-05-05 22:21 | 50.27370 | 7.08270 | 6053 ft | 291 kts | 103° |
| 2026-05-05 22:21 | 50.26904 | 7.11284 | 6001 ft | 285 kts | 103° |
| 2026-05-05 22:22 | 50.26443 | 7.14258 | 6004 ft | 278 kts | 103° |
| 2026-05-05 22:22 | 50.25956 | 7.17171 | 6001 ft | 276 kts | 109° |
| 2026-05-05 22:22 | 50.25288 | 7.19981 | 5989 ft | 274 kts | 111° |
| 2026-05-05 22:22 | 50.24591 | 7.22724 | 5684 ft | 272 kts | 112° |
| 2026-05-05 22:23 | 50.23879 | 7.25436 | 5454 ft | 273 kts | 112° |
| 2026-05-05 22:23 | 50.23147 | 7.28181 | 5311 ft | 273 kts | 113° |
| 2026-05-05 22:23 | 50.22414 | 7.30907 | 5195 ft | 272 kts | 113° |
| 2026-05-05 22:23 | 50.21672 | 7.33650 | 5052 ft | 277 kts | 113° |
| 2026-05-05 22:24 | 50.20921 | 7.36419 | 4936 ft | 281 kts | 113° |
| 2026-05-05 22:24 | 50.20156 | 7.39236 | 4822 ft | 281 kts | 113° |
| 2026-05-05 22:24 | 50.19391 | 7.42047 | 4682 ft | 280 kts | 113° |
| 2026-05-05 22:24 | 50.18626 | 7.44851 | 4563 ft | 280 kts | 113° |
| 2026-05-05 22:25 | 50.17863 | 7.47645 | 4496 ft | 280 kts | 113° |
| 2026-05-05 22:25 | 50.17096 | 7.50451 | 4493 ft | 280 kts | 113° |
| 2026-05-05 22:25 | 50.16341 | 7.53211 | 4491 ft | 280 kts | 113° |
| 2026-05-05 22:25 | 50.15567 | 7.56034 | 4490 ft | 285 kts | 113° |
| 2026-05-05 22:26 | 50.14769 | 7.58944 | 4486 ft | 298 kts | 113° |
| 2026-05-05 22:26 | 50.13944 | 7.61945 | 4487 ft | 303 kts | 113° |
| 2026-05-05 22:26 | 50.13112 | 7.64970 | 4488 ft | 303 kts | 113° |
| 2026-05-05 22:26 | 50.12278 | 7.67998 | 4392 ft | 304 kts | 113° |
| 2026-05-05 22:27 | 50.11454 | 7.70986 | 4349 ft | 303 kts | 113° |
| 2026-05-05 22:27 | 50.10622 | 7.73998 | 4344 ft | 302 kts | 113° |
| 2026-05-05 22:27 | 50.09788 | 7.77015 | 4343 ft | 302 kts | 113° |
| 2026-05-05 22:27 | 50.08955 | 7.80025 | 4341 ft | 303 kts | 113° |
| 2026-05-05 22:28 | 50.08129 | 7.83005 | 4344 ft | 303 kts | 113° |
| 2026-05-05 22:28 | 50.07289 | 7.86030 | 4341 ft | 303 kts | 113° |
| 2026-05-05 22:28 | 50.06549 | 7.89093 | 4345 ft | 302 kts | 104° |
| 2026-05-05 22:28 | 50.06163 | 7.92317 | 4343 ft | 303 kts | 99° |
| 2026-05-05 22:29 | 50.05854 | 7.95565 | 4342 ft | 303 kts | 98° |
| 2026-05-05 22:29 | 50.05554 | 7.98811 | 4341 ft | 303 kts | 98° |
| 2026-05-05 22:29 | 50.05259 | 8.02033 | 4340 ft | 303 kts | 98° |
| 2026-05-05 22:29 | 50.04960 | 8.05286 | 4341 ft | 303 kts | 98° |
| 2026-05-05 22:30 | 50.04662 | 8.08536 | 4342 ft | 303 kts | 98° |
| 2026-05-05 22:30 | 50.04362 | 8.11778 | 4342 ft | 302 kts | 98° |
| 2026-05-05 22:30 | 50.04066 | 8.14975 | 4340 ft | 302 kts | 98° |
| 2026-05-05 22:30 | 50.03764 | 8.18208 | 4338 ft | 296 kts | 98° |
| 2026-05-05 22:31 | 50.03455 | 8.21214 | 4340 ft | 266 kts | 100° |
| 2026-05-05 22:31 | 50.03107 | 8.23907 | 4152 ft | 245 kts | 102° |
| 2026-05-05 22:31 | 50.02723 | 8.26410 | 3829 ft | 227 kts | 104° |
| 2026-05-05 22:31 | 50.02323 | 8.28591 | 3515 ft | 200 kts | 108° |
| 2026-05-05 22:32 | 50.01885 | 8.30544 | 3233 ft | 180 kts | 110° |
| 2026-05-05 22:32 | 50.01471 | 8.32331 | 2988 ft | 172 kts | 110° |
| 2026-05-05 22:32 | 50.01072 | 8.34068 | 2769 ft | 170 kts | 110° |
| 2026-05-05 22:32 | 50.00674 | 8.35799 | 2574 ft | 169 kts | 110° |
| 2026-05-05 22:33 | 50.00292 | 8.37449 | 2395 ft | 160 kts | 110° |
| 2026-05-05 22:33 | 49.99919 | 8.39060 | 2219 ft | 156 kts | 110° |
| 2026-05-05 22:33 | 49.99734 | 8.40703 | 2047 ft | 155 kts | 84° |
| 2026-05-05 22:33 | 50.00036 | 8.42258 | 1847 ft | 145 kts | 66° |
| 2026-05-05 22:34 | 50.00422 | 8.43675 | 1663 ft | 140 kts | 68° |
| 2026-05-05 22:34 | 50.00760 | 8.45089 | 1465 ft | 139 kts | 70° |
| 2026-05-05 22:34 | 50.01093 | 8.46492 | 1291 ft | 138 kts | 69° |
| 2026-05-05 22:34 | 50.01424 | 8.47874 | 1110 ft | 138 kts | 69° |
| 2026-05-05 22:35 | 50.01764 | 8.49265 | 908 ft | 137 kts | 68° |
| 2026-05-05 22:35 | 50.02103 | 8.50639 | 718 ft | 137 kts | 69° |
| 2026-05-05 22:35 | 50.02431 | 8.52032 | 593 ft | 137 kts | 69° |
| 2026-05-05 22:35 | 50.02765 | 8.53415 | 429 ft | 129 kts | 69° |
| 2026-05-05 22:36 | 50.03018 | 8.54478 | 352 ft | 80 kts | 69° |
| 2026-05-05 22:36 | 50.03175 | 8.55149 | 367 ft | 58 kts | 74° |
| 2026-05-05 22:36 | 50.03239 | 8.55653 | 360 ft | 39 kts | 92° |
| 2026-05-05 22:36 | 50.03216 | 8.55938 | 364 ft | 0 kts | 99° |